createdAt,value
2018-05-02T00:01:11.405Z,17.86
2018-05-02T00:03:39.593Z,17.81
2018-05-02T00:06:07.757Z,17.73
2018-05-02T00:08:35.920Z,17.78
2018-05-02T00:11:04.100Z,17.69
2018-05-02T00:13:32.289Z,17.62
2018-05-02T00:16:00.453Z,17.50
2018-05-02T00:18:28.617Z,17.50
2018-05-02T00:20:56.780Z,17.50
2018-05-02T00:23:24.940Z,17.42
2018-05-02T00:25:53.101Z,17.35
2018-05-02T00:28:21.272Z,17.33
2018-05-02T00:30:49.452Z,17.32
2018-05-02T00:33:17.678Z,17.24
2018-05-02T00:35:45.877Z,17.20
2018-05-02T00:38:14.048Z,17.14
2018-05-02T00:40:42.241Z,17.11
2018-05-02T00:43:11.193Z,17.09
2018-05-02T00:45:39.364Z,17.04
2018-05-02T00:48:07.526Z,16.87
2018-05-02T00:50:35.699Z,16.82
2018-05-02T00:53:03.865Z,16.68
2018-05-02T00:55:32.025Z,16.63
2018-05-02T00:58:00.184Z,16.67
2018-05-02T01:00:29.116Z,16.65
2018-05-02T01:02:57.282Z,16.59
2018-05-02T01:05:25.470Z,16.64
2018-05-02T01:07:53.652Z,16.56
2018-05-02T01:10:21.849Z,16.54
2018-05-02T01:12:50.018Z,16.54
2018-05-02T01:15:18.211Z,16.54
2018-05-02T01:17:47.152Z,16.52
2018-05-02T01:20:15.319Z,16.47
2018-05-02T01:22:43.487Z,16.38
2018-05-02T01:25:11.654Z,16.49
2018-05-02T01:27:39.840Z,16.45
2018-05-02T01:30:08.001Z,16.47
2018-05-02T01:32:36.168Z,16.57
2018-05-02T01:35:04.345Z,16.56
2018-05-02T01:37:32.529Z,16.54
2018-05-02T01:40:00.691Z,16.54
2018-05-02T01:42:28.864Z,16.53
2018-05-02T01:44:57.807Z,16.53
2018-05-02T01:47:25.970Z,16.49
2018-05-02T01:49:54.137Z,16.54
2018-05-02T01:52:22.300Z,16.42
2018-05-02T01:54:50.465Z,16.39
2018-05-02T01:57:18.629Z,16.32
2018-05-02T01:59:46.800Z,16.41
2018-05-02T02:02:15.728Z,16.32
2018-05-02T02:04:43.900Z,16.36
2018-05-02T02:07:12.068Z,16.25
2018-05-02T02:09:40.228Z,16.18
2018-05-02T02:12:08.401Z,16.20
2018-05-02T02:14:36.577Z,16.12
2018-05-02T02:17:04.740Z,16.12
2018-05-02T02:19:33.678Z,16.02
2018-05-02T02:22:01.854Z,15.98
2018-05-02T02:24:30.020Z,16.01
2018-05-02T02:26:58.189Z,15.99
2018-05-02T02:29:26.354Z,15.99
2018-05-02T02:31:54.518Z,16.04
2018-05-02T02:34:22.677Z,15.98
2018-05-02T02:36:51.608Z,15.98
2018-05-02T02:39:19.784Z,15.93
2018-05-02T02:41:47.956Z,15.86
2018-05-02T02:44:16.121Z,15.83
2018-05-02T02:46:44.298Z,15.88
2018-05-02T02:49:12.493Z,15.88
2018-05-02T02:51:40.654Z,15.91
2018-05-02T02:54:08.851Z,16.02
2018-05-02T02:56:37.005Z,15.95
2018-05-02T02:59:05.166Z,15.89
2018-05-02T03:01:33.390Z,15.90
2018-05-02T03:04:01.571Z,15.82
2018-05-02T03:06:30.516Z,15.80
2018-05-02T03:08:58.700Z,15.83
2018-05-02T03:11:26.862Z,15.86
2018-05-02T03:13:55.060Z,15.85
2018-05-02T03:16:23.256Z,15.87
2018-05-02T03:18:51.434Z,15.89
2018-05-02T03:21:19.604Z,15.77
2018-05-02T03:23:47.806Z,15.68
2018-05-02T03:26:15.973Z,15.57
2018-05-02T03:28:44.918Z,15.58
2018-05-02T03:31:13.080Z,15.47
2018-05-02T03:33:41.248Z,15.42
2018-05-02T03:36:09.443Z,15.25
2018-05-02T03:38:37.605Z,15.29
2018-05-02T03:41:05.772Z,15.22
2018-05-02T03:43:33.944Z,15.22
2018-05-02T03:46:02.122Z,15.16
2018-05-02T03:48:30.284Z,15.16
2018-05-02T03:50:58.448Z,15.11
2018-05-02T03:53:26.613Z,15.09
2018-05-02T03:55:55.540Z,15.20
2018-05-02T03:58:23.718Z,15.23
2018-05-02T04:01:09.604Z,15.27
2018-05-02T04:03:55.644Z,15.22
2018-05-02T04:09:22.148Z,15.19
2018-05-02T04:11:50.389Z,15.22
2018-05-02T04:14:18.535Z,15.19
2018-05-02T04:16:47.489Z,15.15
2018-05-02T04:19:15.690Z,15.18
2018-05-02T04:21:43.854Z,15.15
2018-05-02T04:24:12.031Z,15.18
2018-05-02T04:26:40.200Z,15.18
2018-05-02T04:29:08.368Z,15.22
2018-05-02T04:31:36.540Z,15.29
2018-05-02T04:34:04.712Z,15.31
2018-05-02T04:36:32.912Z,15.36
2018-05-02T04:39:01.073Z,15.33
2018-05-02T04:41:29.238Z,15.42
2018-05-02T04:43:57.417Z,15.44
2018-05-02T04:46:25.583Z,15.38
2018-05-02T04:48:53.740Z,15.40
2018-05-02T04:51:21.927Z,15.48
2018-05-02T04:53:50.095Z,15.59
2018-05-02T04:56:18.296Z,15.65
2018-05-02T04:58:46.466Z,15.78
2018-05-02T05:01:14.653Z,15.71
2018-05-02T05:03:42.824Z,15.82
2018-05-02T05:06:10.993Z,15.86
2018-05-02T05:08:39.156Z,15.92
2018-05-02T05:11:07.316Z,15.97
2018-05-02T05:13:35.498Z,16.02
2018-05-02T05:16:03.676Z,16.15
2018-05-02T05:18:31.836Z,16.28
2018-05-02T05:21:00.005Z,16.42
2018-05-02T05:23:28.200Z,16.52
2018-05-02T05:25:56.362Z,16.60
2018-05-02T05:28:24.577Z,16.62
2018-05-02T05:30:53.751Z,16.58
2018-05-02T05:33:21.921Z,16.64
2018-05-02T05:35:50.142Z,16.79
2018-05-02T05:38:18.306Z,16.85
2018-05-02T05:40:46.500Z,16.88
2018-05-02T05:43:15.448Z,16.90
2018-05-02T05:45:43.624Z,16.90
2018-05-02T05:48:12.745Z,16.87
2018-05-02T05:50:40.910Z,17.01
2018-05-02T05:53:09.097Z,16.92
2018-05-02T05:55:37.278Z,16.78
2018-05-02T05:58:05.445Z,16.77
2018-05-02T06:00:33.644Z,16.78
2018-05-02T06:03:02.586Z,16.73
2018-05-02T06:05:30.755Z,16.82
2018-05-02T06:07:58.927Z,17.02
2018-05-02T06:10:27.108Z,17.19
2018-05-02T06:12:55.274Z,17.35
2018-05-02T06:15:23.449Z,17.32
2018-05-02T06:17:51.613Z,17.22
2018-05-02T06:20:19.778Z,17.30
2018-05-02T06:22:47.952Z,17.41
2018-05-02T06:25:16.147Z,17.28
2018-05-02T06:27:44.343Z,17.39
2018-05-02T06:30:12.513Z,17.45
2018-05-02T06:32:40.690Z,17.48
2018-05-02T06:35:08.875Z,17.59
2018-05-02T06:37:37.094Z,17.71
2018-05-02T06:40:05.249Z,17.75
2018-05-02T06:42:34.189Z,17.81
2018-05-02T06:45:02.382Z,17.94
2018-05-02T06:47:30.551Z,18.06
2018-05-02T06:49:58.730Z,18.18
2018-05-02T06:52:26.908Z,18.29
2018-05-02T06:54:55.084Z,18.38
2018-05-02T06:57:23.286Z,18.49
2018-05-02T06:59:52.409Z,18.60
2018-05-02T07:02:20.584Z,18.75
2018-05-02T07:04:48.762Z,18.92
2018-05-02T07:07:16.941Z,19.15
2018-05-02T07:09:45.133Z,19.42
2018-05-02T07:12:13.329Z,19.58
2018-05-02T07:14:41.510Z,19.63
2018-05-02T07:17:09.704Z,19.68
2018-05-02T07:19:37.881Z,19.69
2018-05-02T07:22:06.060Z,19.65
2018-05-02T07:24:34.271Z,19.66
2018-05-02T07:27:02.558Z,19.73
2018-05-02T07:29:30.745Z,19.79
2018-05-02T07:31:58.911Z,19.81
2018-05-02T07:34:27.085Z,19.90
2018-05-02T07:36:55.259Z,19.97
2018-05-02T07:39:23.461Z,20.11
2018-05-02T07:41:51.639Z,20.25
2018-05-02T07:44:19.802Z,20.43
2018-05-02T07:46:47.973Z,20.54
2018-05-02T07:49:16.142Z,20.66
2018-05-02T07:51:44.309Z,20.75
2018-05-02T07:54:12.517Z,20.85
2018-05-02T07:56:40.721Z,20.95
2018-05-02T07:59:08.868Z,21.08
2018-05-02T08:01:37.052Z,21.19
2018-05-02T08:04:05.221Z,21.27
2018-05-02T08:06:33.402Z,21.29
2018-05-02T08:09:01.577Z,21.45
2018-05-02T08:11:30.516Z,21.56
2018-05-02T08:13:58.687Z,21.55
2018-05-02T08:16:26.894Z,21.74
2018-05-02T08:18:55.069Z,21.98
2018-05-02T08:21:23.252Z,22.20
2018-05-02T08:23:51.442Z,22.48
2018-05-02T08:26:20.392Z,22.71
2018-05-02T08:28:48.568Z,22.90
2018-05-02T08:31:16.752Z,23.15
2018-05-02T08:33:44.925Z,23.35
2018-05-02T08:36:13.105Z,23.31
2018-05-02T08:38:41.264Z,23.49
2018-05-02T08:41:09.441Z,23.57
2018-05-02T08:43:37.613Z,23.66
2018-05-02T08:46:05.783Z,23.69
2018-05-02T08:48:33.956Z,23.94
2018-05-02T08:51:02.154Z,24.40
2018-05-02T08:53:30.327Z,24.91
2018-05-02T08:55:58.499Z,25.14
2018-05-02T08:58:26.673Z,25.67
2018-05-02T09:00:54.871Z,26.01
2018-05-02T09:03:23.146Z,26.03
2018-05-02T09:05:51.410Z,26.19
2018-05-02T09:08:19.592Z,26.21
2018-05-02T09:10:47.758Z,26.49
2018-05-02T09:13:15.924Z,26.72
2018-05-02T09:15:44.863Z,26.89
2018-05-02T09:18:13.793Z,26.97
2018-05-02T09:20:41.972Z,27.33
2018-05-02T09:23:10.144Z,27.70
2018-05-02T09:25:38.325Z,27.89
2018-05-02T09:28:06.509Z,28.33
2018-05-02T09:30:34.705Z,28.50
2018-05-02T09:33:02.872Z,28.83
2018-05-02T09:35:31.065Z,28.49
2018-05-02T09:37:59.261Z,28.50
2018-05-02T09:40:27.426Z,28.35
2018-05-02T09:42:56.363Z,28.60
2018-05-02T09:45:24.535Z,28.86
2018-05-02T09:47:52.711Z,28.84
2018-05-02T09:50:20.873Z,28.50
2018-05-02T09:52:49.033Z,28.50
2018-05-02T09:55:17.194Z,28.35
2018-05-02T09:57:46.143Z,28.42
2018-05-02T10:00:14.390Z,28.72
2018-05-02T10:02:42.562Z,29.03
2018-05-02T10:05:10.728Z,29.22
2018-05-02T10:07:38.897Z,28.60
2018-05-02T10:10:07.066Z,28.44
2018-05-02T10:12:35.258Z,28.79
2018-05-02T10:15:03.540Z,28.54
2018-05-02T10:17:31.715Z,28.49
2018-05-02T10:19:59.891Z,28.44
2018-05-02T10:22:28.078Z,28.98
2018-05-02T10:24:56.284Z,29.64
2018-05-02T10:27:24.469Z,30.00
2018-05-02T10:29:53.412Z,30.55
2018-05-02T10:32:21.581Z,30.75
2018-05-02T10:34:49.750Z,31.19
2018-05-02T10:37:17.929Z,31.12
2018-05-02T10:39:46.099Z,31.14
2018-05-02T10:42:14.291Z,30.84
2018-05-02T10:44:42.458Z,31.23
2018-05-02T10:47:10.636Z,31.44
2018-05-02T10:49:38.807Z,31.23
2018-05-02T10:52:06.989Z,31.87
2018-05-02T10:54:35.162Z,32.29
2018-05-02T10:57:03.336Z,32.82
2018-05-02T10:59:31.875Z,33.02
2018-05-02T11:02:00.809Z,33.05
2018-05-02T11:04:29.898Z,33.31
2018-05-02T11:06:58.076Z,33.56
2018-05-02T11:09:26.245Z,33.45
2018-05-02T11:11:54.433Z,33.90
2018-05-02T11:14:22.610Z,33.53
2018-05-02T11:16:50.793Z,33.74
2018-05-02T11:19:18.963Z,34.14
2018-05-02T11:21:47.144Z,34.09
2018-05-02T11:24:15.342Z,34.73
2018-05-02T11:26:43.513Z,34.11
2018-05-02T11:29:11.691Z,34.23
2018-05-02T11:31:39.888Z,34.47
2018-05-02T11:34:08.941Z,34.66
2018-05-02T11:36:42.650Z,34.26
2018-05-02T11:39:11.350Z,33.95
2018-05-02T11:41:39.561Z,33.92
2018-05-02T11:44:07.725Z,33.85
2018-05-02T11:46:36.663Z,33.51
2018-05-02T11:49:07.260Z,33.88
2018-05-02T11:51:36.030Z,33.61
2018-05-02T11:54:04.234Z,34.00
2018-05-02T11:56:32.411Z,34.63
2018-05-02T11:59:01.199Z,34.79
2018-05-02T12:01:33.522Z,34.96
2018-05-02T12:04:01.697Z,35.45
2018-05-02T12:06:29.911Z,35.99
2018-05-02T12:09:01.073Z,35.86
2018-05-02T12:11:29.264Z,35.78
2018-05-02T12:13:57.446Z,35.30
2018-05-02T12:16:25.613Z,34.69
2018-05-02T12:18:53.781Z,34.67
2018-05-02T12:21:21.958Z,34.40
2018-05-02T12:23:50.139Z,34.48
2018-05-02T12:26:18.313Z,33.98
2018-05-02T12:28:46.502Z,34.48
2018-05-02T12:31:14.681Z,34.12
2018-05-02T12:33:43.608Z,34.16
2018-05-02T12:36:11.903Z,35.28
2018-05-02T12:38:40.079Z,35.91
2018-05-02T12:41:08.246Z,36.74
2018-05-02T12:43:36.441Z,37.22
2018-05-02T12:46:04.613Z,37.86
2018-05-02T12:48:32.813Z,38.51
2018-05-02T12:51:00.977Z,39.21
2018-05-02T12:53:29.151Z,40.23
2018-05-02T12:55:57.372Z,39.28
2018-05-02T12:58:25.496Z,38.63
2018-05-02T13:00:53.667Z,39.34
2018-05-02T13:03:21.929Z,40.78
2018-05-02T13:05:50.147Z,42.52
2018-05-02T13:08:18.383Z,41.62
2018-05-02T13:10:46.556Z,41.25
2018-05-02T13:13:14.729Z,40.89
2018-05-02T13:15:42.949Z,40.42
2018-05-02T13:18:11.976Z,39.35
2018-05-02T13:20:40.150Z,39.67
2018-05-02T13:23:08.334Z,39.44
2018-05-02T13:25:36.506Z,38.91
2018-05-02T13:28:04.707Z,39.87
2018-05-02T13:30:32.928Z,40.70
2018-05-02T13:33:01.929Z,41.05
2018-05-02T13:35:30.106Z,42.35
2018-05-02T13:37:59.058Z,43.21
2018-05-02T13:40:27.233Z,44.43
2018-05-02T13:42:55.424Z,44.45
2018-05-02T13:45:23.624Z,43.56
2018-05-02T13:47:52.561Z,42.29
2018-05-02T13:50:20.825Z,41.57
2018-05-02T13:52:49.006Z,40.73
2018-05-02T13:55:17.211Z,41.20
2018-05-02T13:57:45.410Z,41.72
2018-05-02T14:00:14.357Z,40.61
2018-05-02T14:02:42.543Z,38.98
2018-05-02T14:05:10.735Z,38.70
2018-05-02T14:07:38.978Z,38.59
2018-05-02T14:10:07.474Z,39.24
2018-05-02T14:12:36.572Z,40.74
2018-05-02T14:15:04.837Z,42.03
2018-05-02T14:17:33.009Z,43.35
2018-05-02T14:20:01.200Z,43.77
2018-05-02T14:22:29.381Z,43.73
2018-05-02T14:24:57.562Z,44.56
2018-05-02T14:27:25.732Z,45.04
2018-05-02T14:29:53.913Z,45.69
2018-05-02T14:32:22.149Z,43.68
2018-05-02T14:34:50.325Z,43.03
2018-05-02T14:37:18.526Z,42.80
2018-05-02T14:39:46.697Z,42.88
2018-05-02T14:42:14.872Z,42.87
2018-05-02T14:44:43.078Z,42.19
2018-05-02T14:47:12.117Z,40.81
2018-05-02T14:49:40.294Z,39.18
2018-05-02T14:52:08.489Z,37.58
2018-05-02T14:54:36.766Z,37.40
2018-05-02T14:57:05.634Z,36.91
2018-05-02T14:59:33.821Z,37.01
2018-05-02T15:02:02.123Z,37.67
2018-05-02T15:04:30.995Z,38.14
2018-05-02T15:06:59.161Z,37.26
2018-05-02T15:09:27.585Z,37.02
2018-05-02T15:11:56.533Z,36.80
2018-05-02T15:14:25.485Z,37.22
2018-05-02T15:16:54.661Z,36.86
2018-05-02T15:19:22.842Z,37.23
2018-05-02T15:21:51.792Z,37.75
2018-05-02T15:24:20.320Z,37.54
2018-05-02T15:26:49.324Z,37.81
2018-05-02T15:29:18.279Z,37.35
2018-05-02T15:31:46.454Z,37.29
2018-05-02T15:34:14.624Z,37.17
2018-05-02T15:36:42.804Z,37.01
2018-05-02T15:39:10.995Z,37.46
2018-05-02T15:41:39.187Z,36.98
2018-05-02T15:44:08.124Z,36.66
2018-05-02T15:46:36.300Z,36.35
2018-05-02T15:49:04.490Z,36.34
2018-05-02T15:51:32.695Z,35.95
2018-05-02T15:54:01.648Z,35.91
2018-05-02T15:56:29.813Z,35.66
2018-05-02T15:58:57.993Z,34.93
2018-05-02T16:01:26.174Z,33.41
2018-05-02T16:03:54.439Z,32.27
2018-05-02T16:06:22.608Z,32.02
2018-05-02T16:08:50.790Z,32.01
2018-05-02T16:11:18.968Z,31.52
2018-05-02T16:13:47.235Z,31.04
2018-05-02T16:16:15.417Z,31.35
2018-05-02T16:18:43.604Z,30.95
2018-05-02T16:21:11.775Z,31.03
2018-05-02T16:23:39.959Z,31.30
2018-05-02T16:26:08.137Z,31.20
2018-05-02T16:28:36.808Z,31.06
2018-05-02T16:31:05.023Z,31.18
2018-05-02T16:33:33.965Z,30.87
2018-05-02T16:36:02.151Z,30.99
2018-05-02T16:38:30.413Z,30.64
2018-05-02T16:40:58.590Z,30.62
2018-05-02T16:43:26.771Z,30.94
2018-05-02T16:45:54.950Z,30.76
2018-05-02T16:48:23.141Z,30.45
2018-05-02T16:50:51.349Z,30.58
2018-05-02T16:53:20.324Z,30.46
2018-05-02T16:55:48.505Z,30.41
2018-05-02T16:58:16.676Z,30.30
2018-05-02T17:00:44.903Z,30.04
2018-05-02T17:03:13.122Z,29.81
2018-05-02T17:05:41.327Z,29.65
2018-05-02T17:08:09.518Z,29.23
2018-05-02T17:10:37.700Z,29.09
2018-05-02T17:13:05.920Z,29.10
2018-05-02T17:15:34.097Z,29.13
2018-05-02T17:18:02.298Z,28.93
2018-05-02T17:20:31.691Z,28.87
2018-05-02T17:23:00.644Z,28.76
2018-05-02T17:25:28.845Z,28.78
2018-05-02T17:27:57.079Z,28.86
2018-05-02T17:30:25.251Z,29.05
2018-05-02T17:32:53.438Z,28.92
2018-05-02T17:35:21.628Z,28.84
2018-05-02T17:37:50.225Z,28.70
2018-05-02T17:40:18.461Z,28.60
2018-05-02T17:42:46.713Z,28.65
2018-05-02T17:45:14.872Z,28.54
2018-05-02T17:47:43.812Z,28.42
2018-05-02T17:50:11.998Z,28.22
2018-05-02T17:52:40.219Z,28.00
2018-05-02T17:55:09.156Z,27.80
2018-05-02T17:57:37.605Z,27.54
2018-05-02T18:00:05.777Z,27.26
2018-05-02T18:02:33.967Z,27.20
2018-05-02T18:05:02.161Z,27.04
2018-05-02T18:07:30.336Z,26.87
2018-05-02T18:09:58.525Z,26.76
2018-05-02T18:12:26.705Z,26.66
2018-05-02T18:14:54.885Z,26.53
2018-05-02T18:17:23.249Z,26.50
2018-05-02T18:19:51.633Z,26.43
2018-05-02T18:22:20.617Z,26.38
2018-05-02T18:24:48.796Z,26.30
2018-05-02T18:27:17.033Z,26.12
2018-05-02T18:29:46.136Z,25.92
2018-05-02T18:32:15.670Z,25.91
2018-05-02T18:34:43.865Z,25.74
2018-05-02T18:37:12.041Z,25.73
2018-05-02T18:39:40.250Z,25.77
2018-05-02T18:42:09.405Z,25.69
2018-05-02T18:44:37.828Z,25.58
2018-05-02T18:47:06.907Z,25.54
2018-05-02T18:49:35.908Z,25.51
2018-05-02T18:52:04.563Z,25.44
2018-05-02T18:54:34.185Z,25.32
2018-05-02T18:57:02.362Z,25.23
2018-05-02T18:59:31.305Z,25.21
2018-05-02T19:01:59.533Z,25.24
2018-05-02T19:04:28.524Z,25.16
2018-05-02T19:06:56.699Z,25.08
2018-05-02T19:09:25.662Z,25.07
2018-05-02T19:11:53.832Z,25.05
2018-05-02T19:14:22.052Z,24.99
2018-05-02T19:16:50.269Z,24.90
2018-05-02T19:19:25.419Z,24.86
2018-05-02T19:21:53.635Z,24.59
2018-05-02T19:24:22.585Z,24.56
2018-05-02T19:26:50.953Z,24.54
2018-05-02T19:29:25.621Z,24.40
2018-05-02T19:31:59.429Z,24.27
2018-05-02T19:34:28.085Z,24.20
2018-05-02T19:36:56.467Z,24.19
2018-05-02T19:39:24.729Z,24.21
2018-05-02T19:41:59.580Z,24.14
2018-05-02T19:44:32.593Z,24.13
2018-05-02T19:47:01.157Z,24.12
2018-05-02T19:49:30.005Z,24.18
2018-05-02T19:52:03.832Z,24.14
2018-05-02T19:54:34.495Z,24.15
2018-05-02T19:57:02.750Z,24.09
2018-05-02T19:59:32.490Z,24.08
2018-05-02T20:02:06.993Z,23.99
2018-05-02T20:04:35.178Z,23.96
2018-05-02T20:07:03.375Z,23.78
2018-05-02T20:09:37.802Z,23.51
2018-05-02T20:12:12.297Z,23.21
2018-05-02T20:14:40.517Z,22.96
2018-05-02T20:17:09.457Z,23.00
2018-05-02T20:19:37.634Z,22.93
2018-05-02T20:22:05.822Z,22.85
2018-05-02T20:24:34.022Z,22.78
2018-05-02T20:27:02.978Z,22.74
2018-05-02T20:29:31.166Z,22.55
2018-05-02T20:31:59.345Z,22.49
2018-05-02T20:34:27.537Z,22.39
2018-05-02T20:36:56.486Z,21.94
2018-05-02T20:39:24.669Z,21.49
2018-05-02T20:41:52.923Z,21.31
2018-05-02T20:44:21.052Z,20.96
2018-05-02T20:46:49.993Z,20.85
2018-05-02T20:49:18.598Z,20.73
2018-05-02T20:51:46.722Z,20.72
2018-05-02T20:54:14.921Z,20.60
2018-05-02T20:56:43.100Z,20.39
2018-05-02T20:59:11.280Z,20.16
2018-05-02T21:01:39.452Z,20.00
2018-05-02T21:04:07.641Z,20.00
2018-05-02T21:06:35.828Z,19.93
2018-05-02T21:09:04.028Z,19.86
2018-05-02T21:11:32.965Z,19.87
2018-05-02T21:14:01.158Z,19.95
2018-05-02T21:16:29.343Z,19.95
2018-05-02T21:18:57.518Z,19.92
2018-05-02T21:21:25.711Z,19.85
2018-05-02T21:23:54.653Z,19.84
2018-05-02T21:26:22.820Z,19.84
2018-05-02T21:28:50.992Z,19.85
2018-05-02T21:31:19.156Z,19.82
2018-05-02T21:33:47.332Z,19.83
2018-05-02T21:36:15.544Z,19.91
2018-05-02T21:38:43.710Z,19.86
2018-05-02T21:41:11.903Z,19.81
2018-05-02T21:43:40.085Z,19.89
2018-05-02T21:46:08.285Z,19.91
2018-05-02T21:48:37.220Z,19.65
2018-05-02T21:51:05.394Z,19.45
2018-05-02T21:53:33.576Z,19.03
2018-05-02T21:56:01.747Z,18.91
2018-05-02T21:58:29.925Z,18.95
2018-05-02T22:00:58.102Z,18.93
2018-05-02T22:03:26.264Z,18.64
2018-05-02T22:05:54.586Z,18.54
2018-05-02T22:08:23.545Z,18.54
2018-05-02T22:10:51.718Z,18.55
2018-05-02T22:13:19.904Z,18.35
2018-05-02T22:15:48.092Z,18.30
2018-05-02T22:18:16.274Z,18.35
2018-05-02T22:20:44.441Z,18.07
2018-05-02T22:23:12.655Z,17.60
2018-05-02T22:25:40.824Z,17.40
2018-05-02T22:28:08.997Z,17.33
2018-05-02T22:30:37.952Z,17.34
2018-05-02T22:33:06.117Z,17.18
2018-05-02T22:35:34.288Z,17.12
2018-05-02T22:38:02.489Z,17.25
2018-05-02T22:40:30.746Z,17.55
2018-05-02T22:42:58.920Z,17.58
2018-05-02T22:45:27.101Z,17.63
2018-05-02T22:47:55.284Z,17.53
2018-05-02T22:50:23.467Z,17.67
2018-05-02T22:52:52.409Z,17.84
2018-05-02T22:55:20.631Z,18.04
2018-05-02T22:57:48.806Z,18.04
2018-05-02T23:00:16.980Z,18.10
2018-05-02T23:02:45.216Z,18.15
2018-05-02T23:05:14.126Z,18.02
2018-05-02T23:07:42.336Z,17.89
2018-05-02T23:10:11.325Z,17.96
2018-05-02T23:12:40.285Z,17.88
2018-05-02T23:15:08.452Z,17.90
2018-05-02T23:17:36.636Z,17.85
2018-05-02T23:20:04.805Z,17.91
2018-05-02T23:22:32.976Z,17.86
2018-05-02T23:25:01.239Z,17.89
2018-05-02T23:27:29.463Z,17.87
2018-05-02T23:29:58.492Z,17.82
2018-05-02T23:32:26.656Z,17.86
2018-05-02T23:34:54.820Z,17.80
2018-05-02T23:37:23.793Z,17.83
2018-05-02T23:39:51.975Z,17.82
2018-05-02T23:42:20.952Z,17.83
2018-05-02T23:44:49.114Z,17.86
2018-05-02T23:47:17.291Z,17.87
2018-05-02T23:49:45.510Z,17.96
2018-05-02T23:52:14.440Z,17.99
2018-05-02T23:54:42.615Z,17.99
2018-05-02T23:57:10.867Z,17.96
2018-05-02T23:59:38.975Z,17.89
